createdAt,value
2019-05-11T00:02:15.515Z,28.57
2019-05-11T00:04:44.221Z,29.83
2019-05-11T00:07:12.273Z,32.60
2019-05-11T00:09:55.659Z,29.93
2019-05-11T00:12:10.975Z,31.60
2019-05-11T00:14:39.040Z,31.83
2019-05-11T00:17:07.065Z,32.13
2019-05-11T00:19:35.461Z,34.70
2019-05-11T00:22:03.523Z,34.50
2019-05-11T00:24:31.465Z,34.37
2019-05-11T00:26:59.513Z,37.37
2019-05-11T00:29:28.362Z,39.83
2019-05-11T00:31:56.725Z,36.97
2019-05-11T00:34:25.207Z,37.43
2019-05-11T00:36:53.322Z,41.60
2019-05-11T00:39:21.765Z,43.13
2019-05-11T00:41:50.833Z,39.70
2019-05-11T00:44:18.937Z,45.27
2019-05-11T00:46:48.063Z,42.00
2019-05-11T00:49:16.367Z,42.57
2019-05-11T00:51:44.453Z,43.67
2019-05-11T00:54:12.482Z,40.47
2019-05-11T00:56:40.881Z,42.00
2019-05-11T00:59:20.959Z,41.87
2019-05-11T01:01:38.721Z,43.60
2019-05-11T01:04:07.271Z,41.17
2019-05-11T01:06:35.455Z,39.83
2019-05-11T01:09:06.054Z,37.63
2019-05-11T01:11:34.496Z,39.30
2019-05-11T01:14:02.883Z,41.83
2019-05-11T01:16:31.091Z,38.93
2019-05-11T01:18:59.518Z,41.50
2019-05-11T01:21:27.600Z,40.63
2019-05-11T01:23:55.734Z,39.27
2019-05-11T01:26:24.393Z,42.10
2019-05-11T01:28:52.462Z,40.97
2019-05-11T01:31:20.625Z,37.80
2019-05-11T01:33:48.710Z,43.10
2019-05-11T01:36:16.718Z,42.83
2019-05-11T01:38:45.563Z,43.00
2019-05-11T01:41:14.098Z,43.37
2019-05-11T01:43:42.271Z,41.50
2019-05-11T01:46:11.063Z,43.23
2019-05-11T01:48:39.240Z,45.20
2019-05-11T01:51:07.413Z,42.93
2019-05-11T01:53:35.593Z,41.43
2019-05-11T01:56:03.692Z,41.17
2019-05-11T01:58:31.824Z,40.50
2019-05-11T02:01:00.184Z,45.53
2019-05-11T02:03:28.428Z,44.83
2019-05-11T02:05:56.452Z,47.33
2019-05-11T02:08:24.568Z,46.83
2019-05-11T02:10:52.730Z,46.23
2019-05-11T02:13:21.498Z,49.43
2019-05-11T02:15:49.410Z,52.73
2019-05-11T02:18:17.646Z,50.50
2019-05-11T02:20:45.501Z,44.53
2019-05-11T02:23:13.346Z,45.90
2019-05-11T02:25:41.184Z,45.47
2019-05-11T02:28:09.480Z,43.80
2019-05-11T02:30:37.297Z,44.07
2019-05-11T02:33:05.206Z,45.87
2019-05-11T02:35:33.057Z,47.60
2019-05-11T02:38:01.000Z,46.87
2019-05-11T02:40:28.873Z,44.90
2019-05-11T02:42:56.887Z,50.37
2019-05-11T02:45:40.033Z,51.27
2019-05-11T02:48:08.654Z,51.90
2019-05-11T02:50:37.076Z,56.10
2019-05-11T02:53:05.968Z,51.93
2019-05-11T02:55:34.583Z,55.73
2019-05-11T02:58:04.200Z,53.27
2019-05-11T03:00:42.860Z,58.63
2019-05-11T03:03:10.812Z,50.83
2019-05-11T03:05:38.870Z,57.10
2019-05-11T03:08:06.811Z,68.40
2019-05-11T03:10:34.709Z,58.50
2019-05-11T03:13:02.958Z,68.13
2019-05-11T03:15:33.108Z,65.90
2019-05-11T03:18:01.349Z,65.53
2019-05-11T03:20:29.265Z,65.13
2019-05-11T03:22:57.119Z,72.87
2019-05-11T03:25:25.039Z,62.27
2019-05-11T03:27:52.921Z,61.67
2019-05-11T03:30:20.909Z,61.50
2019-05-11T03:32:49.106Z,53.10
2019-05-11T03:35:17.293Z,50.43
2019-05-11T03:37:45.485Z,51.50
2019-05-11T03:40:13.655Z,49.77
2019-05-11T03:42:41.657Z,50.00
2019-05-11T03:45:10.331Z,50.83
2019-05-11T03:47:38.298Z,47.10
2019-05-11T03:50:09.012Z,46.93
2019-05-11T03:52:37.611Z,46.47
2019-05-11T03:55:06.906Z,46.47
2019-05-11T03:57:34.992Z,53.73
2019-05-11T04:00:03.438Z,49.07
2019-05-11T04:02:31.480Z,52.43
2019-05-11T04:04:59.427Z,54.23
2019-05-11T04:07:27.407Z,46.53
2019-05-11T04:09:55.408Z,44.80
2019-05-11T04:12:34.188Z,50.40
2019-05-11T04:14:53.557Z,51.97
2019-05-11T04:17:22.650Z,53.33
2019-05-11T04:19:51.554Z,51.77
2019-05-11T04:22:19.486Z,49.07
2019-05-11T04:24:47.761Z,50.43
2019-05-11T04:27:19.498Z,48.93
2019-05-11T04:29:45.652Z,46.50
2019-05-11T04:32:13.897Z,45.90
2019-05-11T04:34:42.018Z,44.23
2019-05-11T04:37:09.966Z,45.63
2019-05-11T04:39:38.746Z,47.07
2019-05-11T04:42:06.991Z,45.00
2019-05-11T04:44:35.230Z,42.37
2019-05-11T04:47:04.111Z,47.03
2019-05-11T04:49:32.534Z,43.63
2019-05-11T04:52:00.678Z,44.03
2019-05-11T04:54:28.815Z,46.90
2019-05-11T04:56:56.905Z,45.57
2019-05-11T04:59:25.411Z,43.57
2019-05-11T05:01:53.561Z,44.00
2019-05-11T05:04:21.905Z,43.93
2019-05-11T05:06:59.494Z,39.80
2019-05-11T05:09:20.267Z,41.83
2019-05-11T05:11:48.527Z,38.20
2019-05-11T05:14:16.874Z,38.30
2019-05-11T05:16:48.613Z,39.47
2019-05-11T05:19:31.659Z,37.03
2019-05-11T05:22:01.020Z,38.30
2019-05-11T05:24:29.088Z,40.00
2019-05-11T05:26:57.389Z,32.33
2019-05-11T05:29:26.359Z,33.37
2019-05-11T05:31:54.460Z,33.30
2019-05-11T05:34:25.162Z,33.93
2019-05-11T05:36:56.566Z,35.00
2019-05-11T05:39:28.647Z,30.93
2019-05-11T05:41:59.695Z,34.20
2019-05-11T05:44:29.595Z,22.80
2019-05-11T05:47:01.421Z,23.67
2019-05-11T05:49:29.813Z,30.80
2019-05-11T05:51:58.698Z,22.43
2019-05-11T05:54:27.737Z,22.77
2019-05-11T05:56:58.819Z,27.27
2019-05-11T05:59:27.507Z,25.70
2019-05-11T06:01:56.722Z,27.80
2019-05-11T06:04:25.598Z,18.77
2019-05-11T06:06:54.859Z,19.97
2019-05-11T06:09:27.476Z,25.40
2019-05-11T06:11:56.811Z,18.93
2019-05-11T06:14:24.832Z,18.03
2019-05-11T06:16:54.310Z,20.40
2019-05-11T06:19:23.176Z,20.90
2019-05-11T06:21:51.138Z,20.63
2019-05-11T06:24:19.324Z,19.67
2019-05-11T06:26:47.242Z,30.60
2019-05-11T06:29:15.045Z,18.53
2019-05-11T06:31:44.330Z,19.13
2019-05-11T06:34:12.324Z,19.40
2019-05-11T06:36:40.430Z,18.73
2019-05-11T06:39:08.533Z,19.40
2019-05-11T06:41:37.439Z,21.53
2019-05-11T06:44:05.890Z,21.00
2019-05-11T06:46:35.117Z,19.73
2019-05-11T06:49:03.872Z,21.50
2019-05-11T06:51:31.864Z,21.93
2019-05-11T06:54:03.064Z,24.37
2019-05-11T06:56:31.264Z,23.10
2019-05-11T06:59:00.380Z,19.07
2019-05-11T07:01:28.406Z,23.57
2019-05-11T07:03:56.327Z,23.57
2019-05-11T07:06:27.026Z,20.53
2019-05-11T07:08:53.971Z,27.27
2019-05-11T07:11:22.609Z,32.93
2019-05-11T07:13:52.464Z,27.40
2019-05-11T07:16:20.270Z,25.23
2019-05-11T07:18:48.208Z,31.67
2019-05-11T07:21:16.502Z,25.93
2019-05-11T07:23:44.828Z,25.17
2019-05-11T07:26:12.853Z,24.77
2019-05-11T07:28:41.266Z,22.60
2019-05-11T07:31:09.640Z,20.93
2019-05-11T07:33:38.044Z,26.57
2019-05-11T07:36:08.297Z,19.48
2019-05-11T07:38:38.205Z,20.17
2019-05-11T07:41:08.621Z,23.90
2019-05-11T07:43:38.059Z,24.12
2019-05-11T07:46:07.772Z,23.73
2019-05-11T07:48:35.442Z,21.67
2019-05-11T07:51:03.355Z,22.77
2019-05-11T07:53:31.264Z,24.43
2019-05-11T07:55:59.296Z,23.67
2019-05-11T07:58:28.517Z,30.00
2019-05-11T08:00:58.194Z,25.43
2019-05-11T08:03:28.464Z,21.20
2019-05-11T08:05:58.224Z,22.70
2019-05-11T08:08:28.363Z,21.17
2019-05-11T08:10:58.555Z,19.73
2019-05-11T08:13:28.164Z,16.90
2019-05-11T08:15:57.867Z,21.30
2019-05-11T08:18:27.970Z,19.27
2019-05-11T08:20:55.416Z,18.62
2019-05-11T08:23:23.358Z,23.87
2019-05-11T08:25:54.310Z,18.52
2019-05-11T08:28:21.061Z,19.27
2019-05-11T08:30:49.339Z,15.85
2019-05-11T08:33:18.176Z,17.17
2019-05-11T08:35:48.042Z,17.92
2019-05-11T08:38:18.034Z,17.27
2019-05-11T08:40:48.537Z,13.72
2019-05-11T08:43:17.953Z,11.63
2019-05-11T08:45:48.382Z,13.30
2019-05-11T08:48:18.621Z,13.13
2019-05-11T08:50:48.821Z,14.13
2019-05-11T08:53:17.823Z,12.67
2019-05-11T08:55:45.908Z,10.08
2019-05-11T08:58:14.245Z,12.53
2019-05-11T09:00:42.528Z,12.63
2019-05-11T09:03:10.568Z,12.13
2019-05-11T09:05:38.613Z,12.15
2019-05-11T09:08:08.205Z,11.45
2019-05-11T09:10:39.696Z,16.73
2019-05-11T09:13:08.062Z,14.07
2019-05-11T09:15:38.243Z,13.65
2019-05-11T09:18:05.691Z,9.03
2019-05-11T09:20:33.960Z,14.25
2019-05-11T09:23:02.014Z,12.88
2019-05-11T09:25:29.925Z,11.85
2019-05-11T09:27:58.673Z,12.33
2019-05-11T09:30:28.738Z,11.70
2019-05-11T09:32:58.116Z,12.68
2019-05-11T09:35:26.067Z,13.83
2019-05-11T09:37:54.300Z,14.50
2019-05-11T09:40:22.551Z,11.68
2019-05-11T09:42:50.559Z,10.68
2019-05-11T09:45:18.910Z,11.83
2019-05-11T09:47:47.853Z,11.35
2019-05-11T09:50:17.950Z,11.35
2019-05-11T09:52:46.047Z,10.93
2019-05-11T09:55:14.431Z,14.63
2019-05-11T09:57:42.328Z,12.95
2019-05-11T10:00:10.700Z,13.28
2019-05-11T10:02:38.872Z,13.68
2019-05-11T10:05:08.402Z,12.30
2019-05-11T10:07:38.076Z,13.38
2019-05-11T10:10:08.919Z,10.78
2019-05-11T10:12:38.022Z,13.78
2019-05-11T10:15:08.329Z,10.30
2019-05-11T10:17:38.287Z,10.70
2019-05-11T10:20:08.913Z,14.98
2019-05-11T10:22:38.424Z,15.53
2019-05-11T10:25:08.828Z,15.25
2019-05-11T10:27:38.328Z,12.18
2019-05-11T10:30:08.318Z,9.90
2019-05-11T10:32:37.916Z,15.55
2019-05-11T10:35:08.037Z,11.55
2019-05-11T10:37:38.709Z,14.83
2019-05-11T10:40:06.376Z,11.05
2019-05-11T10:42:34.621Z,8.00
2019-05-11T10:45:02.477Z,9.83
2019-05-11T10:47:30.749Z,7.80
2019-05-11T10:49:58.784Z,11.70
2019-05-11T10:52:28.541Z,6.80
2019-05-11T10:54:58.610Z,7.73
2019-05-11T10:57:28.272Z,9.73
2019-05-11T10:59:57.965Z,7.55
2019-05-11T11:02:27.740Z,5.70
2019-05-11T11:04:55.865Z,6.28
2019-05-11T11:07:23.760Z,4.35
2019-05-11T11:09:51.680Z,5.67
2019-05-11T11:12:19.888Z,4.23
2019-05-11T11:14:48.272Z,8.55
2019-05-11T11:17:16.271Z,5.08
2019-05-11T11:20:27.818Z,2.67
2019-05-11T11:22:59.734Z,5.97
2019-05-11T11:29:05.226Z,6.53
2019-05-11T11:31:35.394Z,9.83
2019-05-11T11:34:04.044Z,5.15
2019-05-11T11:36:34.696Z,4.30
2019-05-11T11:39:05.588Z,8.38
2019-05-11T11:41:33.902Z,8.18
2019-05-11T11:44:02.744Z,4.70
2019-05-11T11:46:32.473Z,7.78
2019-05-11T11:49:03.142Z,4.70
2019-05-11T11:51:32.264Z,6.62
2019-05-11T11:54:02.233Z,4.10
2019-05-11T11:56:32.617Z,4.35
2019-05-11T11:59:01.700Z,2.55
2019-05-11T12:01:30.994Z,3.70
2019-05-11T12:03:59.638Z,5.12
2019-05-11T12:06:31.459Z,5.78
2019-05-11T12:09:00.161Z,3.55
2019-05-11T12:11:30.732Z,3.07
2019-05-11T12:13:59.442Z,4.93
2019-05-11T12:16:28.474Z,5.37
2019-05-11T12:18:58.460Z,4.08
2019-05-11T12:21:27.738Z,7.62
2019-05-11T12:23:58.486Z,5.90
2019-05-11T12:26:28.146Z,7.72
2019-05-11T12:28:58.296Z,4.87
2019-05-11T12:31:29.640Z,9.03
2019-05-11T12:33:58.688Z,6.17
2019-05-11T12:36:28.174Z,2.77
2019-05-11T12:38:58.120Z,2.42
2019-05-11T12:41:28.010Z,4.85
2019-05-11T12:43:57.810Z,3.00
2019-05-11T12:46:27.664Z,3.20
2019-05-11T12:48:59.841Z,4.35
2019-05-11T12:51:28.088Z,2.57
2019-05-11T12:53:57.692Z,4.62
2019-05-11T12:56:27.740Z,4.35
2019-05-11T12:59:15.021Z,5.87
2019-05-11T13:01:48.543Z,2.02
2019-05-11T13:04:18.151Z,1.65
2019-05-11T13:06:47.937Z,6.17
2019-05-11T13:09:18.307Z,6.83
2019-05-11T13:11:48.402Z,2.60
2019-05-11T13:14:19.961Z,3.20
2019-05-11T13:16:53.965Z,1.47
2019-05-11T13:19:23.895Z,5.83
2019-05-11T13:21:53.262Z,1.17
2019-05-11T13:24:28.223Z,1.67
2019-05-11T13:26:59.575Z,3.72
2019-05-11T13:29:28.689Z,2.40
2019-05-11T13:32:38.389Z,2.35
2019-05-11T13:35:08.881Z,4.00
2019-05-11T13:37:38.625Z,4.15
2019-05-11T13:43:23.575Z,3.67
2019-05-11T13:45:52.017Z,4.08
2019-05-11T13:48:57.930Z,3.30
2019-05-11T13:51:28.654Z,2.90
2019-05-11T13:54:22.112Z,9.48
2019-05-11T13:56:50.897Z,2.27
2019-05-11T13:59:20.836Z,1.20
2019-05-11T14:01:49.325Z,5.58
2019-05-11T14:04:18.411Z,5.08
2019-05-11T14:06:48.593Z,2.08
2019-05-11T14:09:18.418Z,1.80
2019-05-11T14:11:47.860Z,2.58
2019-05-11T14:14:18.393Z,2.10
2019-05-11T14:16:48.502Z,1.42
2019-05-11T14:19:18.324Z,2.60
2019-05-11T14:21:48.789Z,1.32
2019-05-11T14:24:18.403Z,3.90
2019-05-11T14:26:49.363Z,2.22
2019-05-11T14:29:19.244Z,5.67
2019-05-11T14:31:49.986Z,2.03
2019-05-11T14:34:19.597Z,2.60
2019-05-11T14:36:48.201Z,4.53
2019-05-11T14:39:18.801Z,2.83
2019-05-11T14:41:48.781Z,3.37
2019-05-11T14:44:18.095Z,4.90
2019-05-11T14:46:47.769Z,0.70
2019-05-11T14:49:18.629Z,2.37
2019-05-11T14:51:48.491Z,3.65
2019-05-11T14:54:18.745Z,5.60
2019-05-11T14:56:48.172Z,3.20
2019-05-11T14:59:18.447Z,2.63
2019-05-11T15:01:48.760Z,6.47
2019-05-11T15:04:17.958Z,4.15
2019-05-11T15:06:45.669Z,5.03
2019-05-11T15:09:14.102Z,2.17
2019-05-11T15:11:42.309Z,2.33
2019-05-11T15:14:10.137Z,8.23
2019-05-11T15:16:38.535Z,8.83
2019-05-11T15:19:08.037Z,7.50
2019-05-11T15:21:36.009Z,2.47
2019-05-11T15:24:04.457Z,2.57
2019-05-11T15:26:34.877Z,0.83
2019-05-11T15:29:03.435Z,3.30
2019-05-11T15:31:31.526Z,2.17
2019-05-11T15:33:59.486Z,2.87
2019-05-11T15:36:28.570Z,2.43
2019-05-11T15:38:58.241Z,3.13
2019-05-11T15:41:28.103Z,3.13
2019-05-11T15:43:57.951Z,2.00
2019-05-11T15:46:28.216Z,6.63
2019-05-11T15:49:02.993Z,1.07
2019-05-11T15:51:29.117Z,3.10
2019-05-11T15:53:58.719Z,2.40
2019-05-11T15:56:28.020Z,1.77
2019-05-11T15:58:57.812Z,0.75
2019-05-11T16:01:25.791Z,0.77
2019-05-11T16:03:53.886Z,2.00
2019-05-11T16:06:22.063Z,4.63
2019-05-11T16:08:50.070Z,2.37
2019-05-11T16:11:18.477Z,2.27
2019-05-11T16:13:48.378Z,2.53
2019-05-11T16:16:17.640Z,0.87
2019-05-11T16:18:48.379Z,1.93
2019-05-11T16:21:19.475Z,5.00
2019-05-11T16:23:48.665Z,3.60
2019-05-11T16:26:17.636Z,4.07
2019-05-11T16:28:47.700Z,0.40
2019-05-11T16:31:17.902Z,1.80
2019-05-11T16:33:48.320Z,1.63
2019-05-11T16:36:18.068Z,2.80
2019-05-11T16:38:48.352Z,2.90
2019-05-11T16:41:18.266Z,2.10
2019-05-11T16:43:47.951Z,2.90
2019-05-11T16:46:17.721Z,2.67
2019-05-11T16:48:46.319Z,5.67
2019-05-11T16:51:14.813Z,2.90
2019-05-11T16:53:43.408Z,1.27
2019-05-11T16:56:12.004Z,2.57
2019-05-11T16:58:41.079Z,2.50
2019-05-11T17:01:09.502Z,1.80
2019-05-11T17:03:38.436Z,1.67
2019-05-11T17:06:08.319Z,3.30
2019-05-11T17:08:38.389Z,2.10
2019-05-11T17:11:08.252Z,2.40
2019-05-11T17:13:37.932Z,1.80
2019-05-11T17:16:08.746Z,2.87
2019-05-11T17:18:37.577Z,2.57
2019-05-11T17:21:07.809Z,2.73
2019-05-11T17:23:38.424Z,1.83
2019-05-11T17:26:08.689Z,2.10
2019-05-11T17:28:38.523Z,2.43
2019-05-11T17:31:07.998Z,1.87
2019-05-11T17:33:38.439Z,4.80
2019-05-11T17:36:08.400Z,1.90
2019-05-11T17:38:39.000Z,2.20
2019-05-11T17:41:08.469Z,5.47
2019-05-11T17:43:38.648Z,1.90
2019-05-11T17:46:08.179Z,3.60
2019-05-11T17:48:38.603Z,5.43
2019-05-11T17:51:18.367Z,3.20
2019-05-11T17:53:37.823Z,3.47
2019-05-11T17:56:06.722Z,2.00
2019-05-11T17:58:37.675Z,5.17
2019-05-11T18:01:06.367Z,4.23
2019-05-11T18:03:34.736Z,3.73
2019-05-11T18:06:03.081Z,2.10
2019-05-11T18:08:31.164Z,2.27
2019-05-11T18:10:59.026Z,2.17
2019-05-11T18:13:28.364Z,3.47
2019-05-11T18:15:57.849Z,2.20
2019-05-11T18:18:25.984Z,2.40
2019-05-11T18:20:54.197Z,2.03
2019-05-11T18:23:22.661Z,6.50
2019-05-11T18:25:50.541Z,3.03
2019-05-11T18:28:18.560Z,1.47
2019-05-11T18:30:47.978Z,3.43
2019-05-11T18:33:18.647Z,1.90
2019-05-11T18:35:45.903Z,0.77
2019-05-11T18:38:14.153Z,0.87
2019-05-11T18:40:42.212Z,4.33
2019-05-11T18:43:10.398Z,2.07
2019-05-11T18:45:38.564Z,2.57
2019-05-11T18:48:08.092Z,4.20
2019-05-11T18:50:38.396Z,1.53
2019-05-11T18:53:08.885Z,4.97
2019-05-11T18:55:37.913Z,1.13
2019-05-11T18:58:06.701Z,5.83
2019-05-11T19:00:35.298Z,1.57
2019-05-11T19:03:03.849Z,2.60
2019-05-11T19:05:32.087Z,1.07
2019-05-11T19:08:00.517Z,1.50
2019-05-11T19:10:28.807Z,2.57
2019-05-11T19:13:05.051Z,1.77
2019-05-11T19:15:34.952Z,3.03
2019-05-11T19:18:05.577Z,4.30
2019-05-11T19:20:44.958Z,3.43
2019-05-11T19:23:09.424Z,2.77
2019-05-11T19:25:39.359Z,2.33
2019-05-11T19:28:08.532Z,3.00
2019-05-11T19:30:38.479Z,2.77
2019-05-11T19:33:10.696Z,0.40
2019-05-11T19:35:37.839Z,3.33
2019-05-11T19:38:08.441Z,0.87
2019-05-11T19:40:38.364Z,3.80
2019-05-11T19:43:08.153Z,2.47
2019-05-11T19:45:38.197Z,1.80
2019-05-11T19:48:08.157Z,4.73
2019-05-11T19:50:38.160Z,1.93
2019-05-11T19:53:08.422Z,1.43
2019-05-11T19:55:36.499Z,1.37
2019-05-11T19:58:04.317Z,2.83
2019-05-11T20:00:32.455Z,4.13
2019-05-11T20:03:00.710Z,3.50
2019-05-11T20:05:28.922Z,4.20
2019-05-11T20:07:58.725Z,0.97
2019-05-11T20:10:27.727Z,6.63
2019-05-11T20:12:55.855Z,2.87
2019-05-11T20:15:24.065Z,2.30
2019-05-11T20:17:51.961Z,3.07
2019-05-11T20:20:20.117Z,4.70
2019-05-11T20:22:48.588Z,5.40
2019-05-11T20:25:18.939Z,2.80
2019-05-11T20:27:48.383Z,2.60
2019-05-11T20:30:18.276Z,3.70
2019-05-11T20:32:48.491Z,4.10
2019-05-11T20:35:16.425Z,3.87
2019-05-11T20:37:44.350Z,4.27
2019-05-11T20:40:12.533Z,1.57
2019-05-11T20:42:40.415Z,4.73
2019-05-11T20:45:08.739Z,2.20
2019-05-11T20:47:38.239Z,5.10
2019-05-11T20:50:07.961Z,1.17
2019-05-11T20:52:35.944Z,2.67
2019-05-11T20:55:04.465Z,4.80
2019-05-11T20:57:32.323Z,1.60
2019-05-11T21:00:00.254Z,3.63
2019-05-11T21:02:28.832Z,2.73
2019-05-11T21:04:58.694Z,3.60
2019-05-11T21:07:27.973Z,3.10
2019-05-11T21:09:57.741Z,4.28
2019-05-11T21:12:25.697Z,2.70
2019-05-11T21:14:57.896Z,3.80
2019-05-11T21:17:27.274Z,3.47
2019-05-11T21:19:56.920Z,3.87
2019-05-11T21:22:27.984Z,4.83
2019-05-11T21:24:58.186Z,8.07
2019-05-11T21:27:28.712Z,3.53
2019-05-11T21:29:59.354Z,3.77
2019-05-11T21:32:28.209Z,5.70
2019-05-11T21:34:58.373Z,3.23
2019-05-11T21:37:27.893Z,2.93
2019-05-11T21:39:57.793Z,4.63
2019-05-11T21:42:28.072Z,1.87
2019-05-11T21:44:58.170Z,3.13
2019-05-11T21:47:28.921Z,3.30
2019-05-11T21:49:58.329Z,1.60
2019-05-11T21:52:28.579Z,4.83
2019-05-11T21:54:58.340Z,4.23
2019-05-11T21:57:27.860Z,5.83
2019-05-11T21:59:57.412Z,3.13
2019-05-11T22:02:26.096Z,3.93
2019-05-11T22:04:54.428Z,4.10
2019-05-11T22:07:23.362Z,4.23
2019-05-11T22:09:51.648Z,2.00
2019-05-11T22:12:20.092Z,2.83
2019-05-11T22:14:48.897Z,5.37
2019-05-11T22:17:18.246Z,2.67
2019-05-11T22:19:47.723Z,6.10
2019-05-11T22:22:22.452Z,2.03
2019-05-11T22:24:47.713Z,4.53
2019-05-11T22:27:15.664Z,2.43
2019-05-11T22:29:43.658Z,3.67
2019-05-11T22:32:11.980Z,0.87
2019-05-11T22:34:39.967Z,3.17
2019-05-11T22:37:08.631Z,2.40
2019-05-11T22:39:37.754Z,2.80
2019-05-11T22:42:07.799Z,2.20
2019-05-11T22:44:38.007Z,3.80
2019-05-11T22:47:05.888Z,2.57
2019-05-11T22:49:35.950Z,1.90
2019-05-11T22:52:03.819Z,3.23
2019-05-11T22:54:31.769Z,4.20
2019-05-11T22:56:59.633Z,0.90
2019-05-11T22:59:28.140Z,1.70
2019-05-11T23:01:56.050Z,3.23
2019-05-11T23:04:23.974Z,4.40
2019-05-11T23:06:51.828Z,1.50
2019-05-11T23:09:20.063Z,3.87
2019-05-11T23:11:48.304Z,5.07
2019-05-11T23:14:17.722Z,2.83
2019-05-11T23:16:49.736Z,4.90
2019-05-11T23:19:18.125Z,1.60
2019-05-11T23:21:48.046Z,2.40
2019-05-11T23:24:17.932Z,3.47
2019-05-11T23:26:47.895Z,2.33
2019-05-11T23:29:15.787Z,4.00
2019-05-11T23:31:43.619Z,3.17
2019-05-11T23:34:11.593Z,4.50
2019-05-11T23:36:39.594Z,4.60
2019-05-11T23:39:09.008Z,3.13
2019-05-11T23:41:38.023Z,4.13
2019-05-11T23:44:06.038Z,3.47
2019-05-11T23:46:34.128Z,2.20
2019-05-11T23:49:02.140Z,1.47
2019-05-11T23:51:30.037Z,2.10
2019-05-11T23:53:58.830Z,3.23
2019-05-11T23:56:28.157Z,3.07
2019-05-11T23:58:57.843Z,1.27
